createdAt,value
2022-12-08T00:00:29.472Z,943.03
2022-12-08T00:01:29.478Z,943.05
2022-12-08T00:02:29.714Z,943.10
2022-12-08T00:03:29.589Z,943.09
2022-12-08T00:04:29.449Z,943.08
2022-12-08T00:05:29.508Z,943.07
2022-12-08T00:06:29.407Z,943.05
2022-12-08T00:07:29.395Z,943.06
2022-12-08T00:08:29.386Z,943.08
2022-12-08T00:09:34.733Z,943.03
2022-12-08T00:10:58.642Z,943.04
2022-12-08T00:11:30.339Z,943.06
2022-12-08T00:12:29.337Z,943.00
2022-12-08T00:13:29.320Z,943.03
2022-12-08T00:14:29.340Z,943.02
2022-12-08T00:15:29.518Z,942.98
2022-12-08T00:16:29.327Z,943.01
2022-12-08T00:17:29.280Z,942.96
2022-12-08T00:18:29.293Z,942.97
2022-12-08T00:19:29.280Z,942.95
2022-12-08T00:20:29.246Z,943.00
2022-12-08T00:21:29.232Z,942.94
2022-12-08T00:22:29.225Z,942.96
2022-12-08T00:23:29.228Z,942.93
2022-12-08T00:24:29.212Z,942.91
2022-12-08T00:25:29.212Z,942.88
2022-12-08T00:26:29.197Z,942.84
2022-12-08T00:27:29.164Z,942.89
2022-12-08T00:28:29.158Z,942.92
2022-12-08T00:29:29.175Z,942.91
2022-12-08T00:30:29.139Z,942.98
2022-12-08T00:31:29.300Z,942.97
2022-12-08T00:32:29.124Z,942.99
2022-12-08T00:33:29.094Z,942.94
2022-12-08T00:34:29.116Z,942.91
2022-12-08T00:35:29.075Z,942.94
2022-12-08T00:36:29.072Z,942.95
2022-12-08T00:37:29.081Z,942.96
2022-12-08T00:38:29.050Z,942.99
2022-12-08T00:39:29.053Z,942.97
2022-12-08T00:40:29.049Z,942.96
2022-12-08T00:41:29.008Z,942.98
2022-12-08T00:42:29.021Z,942.89
2022-12-08T00:43:29.004Z,942.89
2022-12-08T00:44:28.980Z,942.89
2022-12-08T00:45:29.002Z,942.91
2022-12-08T00:46:29.045Z,942.88
2022-12-08T00:47:28.967Z,942.88
2022-12-08T00:48:28.954Z,942.86
2022-12-08T00:49:28.940Z,942.82
2022-12-08T00:50:28.953Z,942.84
2022-12-08T00:51:28.897Z,942.83
2022-12-08T00:52:28.890Z,942.83
2022-12-08T00:53:28.874Z,942.86
2022-12-08T00:54:28.871Z,942.85
2022-12-08T00:55:28.871Z,942.86
2022-12-08T00:56:28.847Z,942.87
2022-12-08T00:57:28.849Z,942.89
2022-12-08T00:58:28.823Z,942.82
2022-12-08T00:59:28.805Z,942.86
2022-12-08T01:00:28.817Z,942.84
2022-12-08T01:01:28.904Z,942.85
2022-12-08T01:02:28.786Z,942.86
2022-12-08T01:03:28.845Z,942.90
2022-12-08T01:04:28.756Z,942.88
2022-12-08T01:05:28.777Z,942.87
2022-12-08T01:06:28.773Z,942.87
2022-12-08T01:07:28.747Z,942.89
2022-12-08T01:08:28.752Z,942.93
2022-12-08T01:09:28.702Z,942.91
2022-12-08T01:10:28.691Z,942.90
2022-12-08T01:11:28.680Z,942.86
2022-12-08T01:12:28.695Z,942.86
2022-12-08T01:13:28.651Z,942.86
2022-12-08T01:14:28.645Z,942.83
2022-12-08T01:15:28.631Z,942.88
2022-12-08T01:16:28.682Z,942.92
2022-12-08T01:17:28.627Z,942.92
2022-12-08T01:18:28.646Z,942.94
2022-12-08T01:19:28.589Z,942.92
2022-12-08T01:20:28.603Z,942.96
2022-12-08T01:21:28.600Z,942.89
2022-12-08T01:22:28.594Z,942.94
2022-12-08T01:23:28.549Z,942.94
2022-12-08T01:24:28.535Z,943.01
2022-12-08T01:25:28.519Z,942.96
2022-12-08T01:26:28.511Z,942.95
2022-12-08T01:27:28.519Z,942.91
2022-12-08T01:28:28.492Z,942.92
2022-12-08T01:29:28.472Z,942.91
2022-12-08T01:30:28.498Z,942.89
2022-12-08T01:31:28.567Z,942.89
2022-12-08T01:32:28.445Z,942.85
2022-12-08T01:33:28.433Z,942.83
2022-12-08T01:34:28.425Z,942.82
2022-12-08T01:35:28.417Z,942.77
2022-12-08T01:36:28.425Z,942.82
2022-12-08T01:37:28.386Z,942.80
2022-12-08T01:38:28.397Z,942.80
2022-12-08T01:39:28.379Z,942.83
2022-12-08T01:40:28.353Z,942.82
2022-12-08T01:41:28.370Z,942.84
2022-12-08T01:42:28.333Z,942.84
2022-12-08T01:43:28.319Z,942.84
2022-12-08T01:44:28.312Z,942.81
2022-12-08T01:45:28.301Z,942.82
2022-12-08T01:46:28.390Z,942.80
2022-12-08T01:47:28.352Z,942.81
2022-12-08T01:48:28.407Z,942.78
2022-12-08T01:49:28.254Z,942.69
2022-12-08T01:50:28.245Z,942.70
2022-12-08T01:51:28.247Z,942.73
2022-12-08T01:52:28.222Z,942.73
2022-12-08T01:53:28.206Z,942.73
2022-12-08T01:54:28.219Z,942.71
2022-12-08T01:55:28.182Z,942.68
2022-12-08T01:56:28.195Z,942.72
2022-12-08T01:57:28.165Z,942.69
2022-12-08T01:58:28.149Z,942.68
2022-12-08T01:59:28.176Z,942.65
2022-12-08T02:00:28.130Z,942.71
2022-12-08T02:01:28.989Z,942.66
2022-12-08T02:02:28.186Z,942.67
2022-12-08T02:03:28.099Z,942.60
2022-12-08T02:04:28.105Z,942.59
2022-12-08T02:05:28.080Z,942.61
2022-12-08T02:06:28.066Z,942.56
2022-12-08T02:07:28.065Z,942.61
2022-12-08T02:08:28.088Z,942.54
2022-12-08T02:09:28.057Z,942.56
2022-12-08T02:10:28.038Z,942.54
2022-12-08T02:11:28.011Z,942.56
2022-12-08T02:12:28.001Z,942.50
2022-12-08T02:13:28.005Z,942.50
2022-12-08T02:14:27.991Z,942.50
2022-12-08T02:15:27.985Z,942.44
2022-12-08T02:16:28.035Z,942.46
2022-12-08T02:17:27.944Z,942.48
2022-12-08T02:18:27.953Z,942.45
2022-12-08T02:19:31.124Z,942.51
2022-12-08T02:20:27.929Z,942.49
2022-12-08T02:21:27.904Z,942.48
2022-12-08T02:22:27.904Z,942.48
2022-12-08T02:23:28.030Z,942.49
2022-12-08T02:24:27.873Z,942.50
2022-12-08T02:25:27.852Z,942.49
2022-12-08T02:26:27.859Z,942.47
2022-12-08T02:27:27.838Z,942.45
2022-12-08T02:28:27.819Z,942.41
2022-12-08T02:29:27.840Z,942.39
2022-12-08T02:30:27.847Z,942.39
2022-12-08T02:31:27.885Z,942.39
2022-12-08T02:32:27.800Z,942.43
2022-12-08T02:33:27.766Z,942.37
2022-12-08T02:34:27.770Z,942.41
2022-12-08T02:35:27.744Z,942.35
2022-12-08T02:36:27.824Z,942.35
2022-12-08T02:37:27.731Z,942.33
2022-12-08T02:38:27.704Z,942.33
2022-12-08T02:39:27.716Z,942.38
2022-12-08T02:40:27.685Z,942.33
2022-12-08T02:41:27.686Z,942.28
2022-12-08T02:42:27.677Z,942.34
2022-12-08T02:43:27.663Z,942.23
2022-12-08T02:44:27.658Z,942.23
2022-12-08T02:45:27.658Z,942.25
2022-12-08T02:46:27.755Z,942.28
2022-12-08T02:47:27.620Z,942.27
2022-12-08T02:48:27.590Z,942.26
2022-12-08T02:49:27.591Z,942.25
2022-12-08T02:50:27.589Z,942.22
2022-12-08T02:51:27.586Z,942.24
2022-12-08T02:52:27.570Z,942.19
2022-12-08T02:53:27.565Z,942.21
2022-12-08T02:54:27.525Z,942.17
2022-12-08T02:55:27.547Z,942.18
2022-12-08T02:56:27.509Z,942.21
2022-12-08T02:57:27.507Z,942.21
2022-12-08T02:58:27.517Z,942.24
2022-12-08T02:59:27.479Z,942.24
2022-12-08T03:00:27.481Z,942.18
2022-12-08T03:01:27.527Z,942.19
2022-12-08T03:02:27.488Z,942.19
2022-12-08T03:03:27.433Z,942.16
2022-12-08T03:04:27.448Z,942.15
2022-12-08T03:05:27.407Z,942.17
2022-12-08T03:06:27.393Z,942.14
2022-12-08T03:07:27.385Z,942.17
2022-12-08T03:08:27.530Z,942.21
2022-12-08T03:09:27.383Z,942.18
2022-12-08T03:10:27.353Z,942.16
2022-12-08T03:11:27.380Z,942.19
2022-12-08T03:12:27.351Z,942.21
2022-12-08T03:13:27.338Z,942.18
2022-12-08T03:14:27.333Z,942.22
2022-12-08T03:15:27.407Z,942.15
2022-12-08T03:16:27.412Z,942.17
2022-12-08T03:17:27.274Z,942.12
2022-12-08T03:18:27.263Z,942.16
2022-12-08T03:19:27.296Z,942.10
2022-12-08T03:20:27.235Z,942.05
2022-12-08T03:21:27.254Z,942.12
2022-12-08T03:22:27.236Z,942.06
2022-12-08T03:23:27.208Z,942.05
2022-12-08T03:24:27.196Z,942.03
2022-12-08T03:25:27.188Z,941.98
2022-12-08T03:26:27.190Z,941.99
2022-12-08T03:27:27.164Z,941.97
2022-12-08T03:28:27.145Z,941.94
2022-12-08T03:29:27.142Z,941.95
2022-12-08T03:30:27.161Z,941.96
2022-12-08T03:31:27.194Z,941.97
2022-12-08T03:32:27.125Z,941.94
2022-12-08T03:33:27.096Z,941.88
2022-12-08T03:34:27.087Z,941.90
2022-12-08T03:35:27.100Z,941.89
2022-12-08T03:36:27.072Z,941.91
2022-12-08T03:37:27.050Z,941.95
2022-12-08T03:38:27.053Z,941.93
2022-12-08T03:39:27.031Z,941.89
2022-12-08T03:40:27.035Z,941.92
2022-12-08T03:41:27.008Z,941.88
2022-12-08T03:42:27.406Z,941.89
2022-12-08T03:43:26.988Z,941.92
2022-12-08T03:44:26.974Z,941.89
2022-12-08T03:45:26.985Z,941.91
2022-12-08T03:46:30.689Z,941.89
2022-12-08T03:47:26.954Z,941.90
2022-12-08T03:48:26.946Z,941.89
2022-12-08T03:49:26.917Z,941.90
2022-12-08T03:50:26.930Z,941.88
2022-12-08T03:51:26.893Z,941.88
2022-12-08T03:52:26.914Z,941.86
2022-12-08T03:53:26.873Z,941.88
2022-12-08T03:54:26.874Z,941.80
2022-12-08T03:55:26.850Z,941.83
2022-12-08T03:56:26.859Z,941.83
2022-12-08T03:57:26.823Z,941.85
2022-12-08T03:58:26.818Z,941.83
2022-12-08T03:59:26.814Z,941.80
2022-12-08T04:00:26.802Z,941.80
2022-12-08T04:01:26.871Z,941.75
2022-12-08T04:02:26.860Z,941.80
2022-12-08T04:03:26.800Z,941.77
2022-12-08T04:04:26.759Z,941.76
2022-12-08T04:05:26.737Z,941.75
2022-12-08T04:06:26.757Z,941.74
2022-12-08T04:07:26.715Z,941.70
2022-12-08T04:08:26.811Z,941.74
2022-12-08T04:09:26.690Z,941.77
2022-12-08T04:10:26.683Z,941.73
2022-12-08T04:11:26.694Z,941.74
2022-12-08T04:12:26.669Z,941.73
2022-12-08T04:13:26.646Z,941.74
2022-12-08T04:14:26.641Z,941.72
2022-12-08T04:15:26.625Z,941.74
2022-12-08T04:16:26.713Z,941.74
2022-12-08T04:17:26.621Z,941.71
2022-12-08T04:18:26.641Z,941.69
2022-12-08T04:19:26.580Z,941.71
2022-12-08T04:20:26.577Z,941.70
2022-12-08T04:21:26.596Z,941.65
2022-12-08T04:22:26.553Z,941.63
2022-12-08T04:23:26.552Z,941.62
2022-12-08T04:24:26.541Z,941.59
2022-12-08T04:25:26.516Z,941.61
2022-12-08T04:26:26.516Z,941.60
2022-12-08T04:27:26.498Z,941.63
2022-12-08T04:28:26.524Z,941.59
2022-12-08T04:29:26.473Z,941.56
2022-12-08T04:30:26.480Z,941.58
2022-12-08T04:31:26.595Z,941.59
2022-12-08T04:32:26.516Z,941.55
2022-12-08T04:33:26.454Z,941.55
2022-12-08T04:34:26.447Z,941.53
2022-12-08T04:35:26.405Z,941.54
2022-12-08T04:36:26.409Z,941.59
2022-12-08T04:37:26.388Z,941.52
2022-12-08T04:38:26.396Z,941.55
2022-12-08T04:39:26.374Z,941.54
2022-12-08T04:40:26.358Z,941.53
2022-12-08T04:41:26.340Z,941.56
2022-12-08T04:42:26.367Z,941.51
2022-12-08T04:43:26.341Z,941.53
2022-12-08T04:44:26.319Z,941.54
2022-12-08T04:45:26.298Z,941.51
2022-12-08T04:46:26.343Z,941.52
2022-12-08T04:47:26.285Z,941.50
2022-12-08T04:48:26.284Z,941.47
2022-12-08T04:49:26.245Z,941.47
2022-12-08T04:50:26.263Z,941.48
2022-12-08T04:51:26.231Z,941.49
2022-12-08T04:52:26.223Z,941.49
2022-12-08T04:53:26.225Z,941.48
2022-12-08T04:54:26.202Z,941.51
2022-12-08T04:55:26.182Z,941.51
2022-12-08T04:56:26.175Z,941.45
2022-12-08T04:57:26.179Z,941.45
2022-12-08T04:58:26.168Z,941.41
2022-12-08T04:59:26.144Z,941.45
2022-12-08T05:00:26.152Z,941.48
2022-12-08T05:01:26.191Z,941.47
2022-12-08T05:02:26.196Z,941.45
2022-12-08T05:03:28.689Z,941.46
2022-12-08T05:04:26.088Z,941.48
2022-12-08T05:05:26.074Z,941.50
2022-12-08T05:06:26.080Z,941.49
2022-12-08T05:07:26.067Z,941.45
2022-12-08T05:08:26.082Z,941.44
2022-12-08T05:09:26.043Z,941.42
2022-12-08T05:10:26.145Z,941.43
2022-12-08T05:11:26.197Z,941.44
2022-12-08T05:12:26.020Z,941.43
2022-12-08T05:13:25.995Z,941.40
2022-12-08T05:14:25.984Z,941.41
2022-12-08T05:15:25.957Z,941.44
2022-12-08T05:16:26.049Z,941.40
2022-12-08T05:17:25.954Z,941.40
2022-12-08T05:18:25.937Z,941.38
2022-12-08T05:19:25.923Z,941.38
2022-12-08T05:20:25.925Z,941.37
2022-12-08T05:21:25.891Z,941.40
2022-12-08T05:22:25.917Z,941.40
2022-12-08T05:23:26.656Z,941.36
2022-12-08T05:24:25.865Z,941.38
2022-12-08T05:25:25.846Z,941.42
2022-12-08T05:26:25.858Z,941.40
2022-12-08T05:27:25.821Z,941.32
2022-12-08T05:28:41.207Z,941.40
2022-12-08T05:29:26.802Z,941.35
2022-12-08T05:30:25.813Z,941.37
2022-12-08T05:31:25.844Z,941.35
2022-12-08T05:32:25.776Z,941.34
2022-12-08T05:33:25.753Z,941.35
2022-12-08T05:34:25.771Z,941.37
2022-12-08T05:35:25.757Z,941.38
2022-12-08T05:36:25.729Z,941.37
2022-12-08T05:37:25.714Z,941.33
2022-12-08T05:38:25.721Z,941.35
2022-12-08T05:39:25.712Z,941.37
2022-12-08T05:40:25.683Z,941.36
2022-12-08T05:41:25.694Z,941.37
2022-12-08T05:42:25.665Z,941.39
2022-12-08T05:43:25.647Z,941.39
2022-12-08T05:44:25.645Z,941.36
2022-12-08T05:45:25.682Z,941.39
2022-12-08T05:46:25.792Z,941.33
2022-12-08T05:47:25.602Z,941.34
2022-12-08T05:48:25.590Z,941.33
2022-12-08T05:49:25.576Z,941.34
2022-12-08T05:50:25.576Z,941.34
2022-12-08T05:51:25.575Z,941.32
2022-12-08T05:52:25.549Z,941.32
2022-12-08T05:53:25.555Z,941.33
2022-12-08T05:54:25.568Z,941.31
2022-12-08T05:55:25.515Z,941.28
2022-12-08T05:56:25.506Z,941.28
2022-12-08T05:57:25.493Z,941.29
2022-12-08T05:58:25.482Z,941.26
2022-12-08T05:59:25.492Z,941.30
2022-12-08T06:00:25.464Z,941.22
2022-12-08T06:01:25.444Z,941.23
2022-12-08T06:02:25.584Z,941.24
2022-12-08T06:03:25.511Z,941.22
2022-12-08T06:04:25.439Z,941.25
2022-12-08T06:05:25.397Z,941.29
2022-12-08T06:06:25.397Z,941.23
2022-12-08T06:07:25.402Z,941.25
2022-12-08T06:08:25.457Z,941.24
2022-12-08T06:09:25.374Z,941.21
2022-12-08T06:10:25.370Z,941.21
2022-12-08T06:11:25.337Z,941.28
2022-12-08T06:12:25.354Z,941.23
2022-12-08T06:13:25.333Z,941.23
2022-12-08T06:14:25.307Z,941.25
2022-12-08T06:15:25.295Z,941.32
2022-12-08T06:16:25.332Z,941.30
2022-12-08T06:17:25.282Z,941.29
2022-12-08T06:18:31.167Z,941.31
2022-12-08T06:19:26.276Z,941.36
2022-12-08T06:20:25.233Z,941.35
2022-12-08T06:21:25.245Z,941.37
2022-12-08T06:22:25.233Z,941.38
2022-12-08T06:23:25.206Z,941.37
2022-12-08T06:24:25.198Z,941.37
2022-12-08T06:25:25.186Z,941.40
2022-12-08T06:26:25.180Z,941.38
2022-12-08T06:27:25.183Z,941.35
2022-12-08T06:28:25.194Z,941.36
2022-12-08T06:29:25.159Z,941.33
2022-12-08T06:30:25.124Z,941.32
2022-12-08T06:31:25.208Z,941.31
2022-12-08T06:32:27.615Z,941.35
2022-12-08T06:33:25.114Z,941.38
2022-12-08T06:34:25.082Z,941.33
2022-12-08T06:35:25.070Z,941.36
2022-12-08T06:36:25.072Z,941.36
2022-12-08T06:37:25.072Z,941.31
2022-12-08T06:38:25.039Z,941.33
2022-12-08T06:39:25.030Z,941.31
2022-12-08T06:40:25.022Z,941.35
2022-12-08T06:41:25.030Z,941.36
2022-12-08T06:42:25.009Z,941.36
2022-12-08T06:43:24.984Z,941.36
2022-12-08T06:44:24.991Z,941.39
2022-12-08T06:45:24.958Z,941.41
2022-12-08T06:46:25.071Z,941.43
2022-12-08T06:47:26.462Z,941.43
2022-12-08T06:48:24.925Z,941.46
2022-12-08T06:49:24.919Z,941.39
2022-12-08T06:50:24.921Z,941.45
2022-12-08T06:51:24.892Z,941.44
2022-12-08T06:52:24.900Z,941.46
2022-12-08T06:53:24.880Z,941.46
2022-12-08T06:54:24.873Z,941.46
2022-12-08T06:55:57.266Z,941.47
2022-12-08T06:56:25.888Z,941.50
2022-12-08T06:57:25.589Z,941.47
2022-12-08T06:58:24.833Z,941.50
2022-12-08T06:59:24.824Z,941.53
2022-12-08T07:00:24.902Z,941.53
2022-12-08T07:01:24.894Z,941.51
2022-12-08T07:02:24.825Z,941.55
2022-12-08T07:03:24.760Z,941.53
2022-12-08T07:04:24.748Z,941.50
2022-12-08T07:05:24.737Z,941.59
2022-12-08T07:06:24.741Z,941.55
2022-12-08T07:07:24.758Z,941.56
2022-12-08T07:08:24.788Z,941.56
2022-12-08T07:09:24.694Z,941.59
2022-12-08T07:10:24.687Z,941.63
2022-12-08T07:11:24.792Z,941.60
2022-12-08T07:12:24.680Z,941.62
2022-12-08T07:13:24.649Z,941.62
2022-12-08T07:14:24.675Z,941.61
2022-12-08T07:15:24.630Z,941.59
2022-12-08T07:16:24.687Z,941.61
2022-12-08T07:17:24.608Z,941.58
2022-12-08T07:18:24.614Z,941.61
2022-12-08T07:19:24.586Z,941.55
2022-12-08T07:20:24.593Z,941.58
2022-12-08T07:21:24.564Z,941.61
2022-12-08T07:22:24.546Z,941.59
2022-12-08T07:23:24.544Z,941.59
2022-12-08T07:24:24.555Z,941.62
2022-12-08T07:25:24.522Z,941.61
2022-12-08T07:26:24.497Z,941.61
2022-12-08T07:27:24.496Z,941.66
2022-12-08T07:28:24.488Z,941.66
2022-12-08T07:29:26.395Z,941.62
2022-12-08T07:30:24.478Z,941.67
2022-12-08T07:31:24.603Z,941.60
2022-12-08T07:32:24.521Z,941.61
2022-12-08T07:33:24.431Z,941.59
2022-12-08T07:34:24.440Z,941.64
2022-12-08T07:35:24.411Z,941.61
2022-12-08T07:36:24.386Z,941.60
2022-12-08T07:37:24.390Z,941.59
2022-12-08T07:38:24.368Z,941.54
2022-12-08T07:39:24.366Z,941.53
2022-12-08T07:40:24.363Z,941.60
2022-12-08T07:41:24.343Z,941.55
2022-12-08T07:42:24.327Z,941.59
2022-12-08T07:43:24.315Z,941.56
2022-12-08T07:44:24.318Z,941.59
2022-12-08T07:45:29.857Z,941.55
2022-12-08T07:46:25.431Z,941.53
2022-12-08T07:47:24.279Z,941.56
2022-12-08T07:48:24.274Z,941.54
2022-12-08T07:49:24.273Z,941.53
2022-12-08T07:50:24.243Z,941.62
2022-12-08T07:51:24.245Z,941.53
2022-12-08T07:52:24.208Z,941.54
2022-12-08T07:53:24.202Z,941.60
2022-12-08T07:54:24.206Z,941.59
2022-12-08T07:55:24.183Z,941.55
2022-12-08T07:56:24.190Z,941.53
2022-12-08T07:57:24.178Z,941.49
2022-12-08T07:58:24.148Z,941.52
2022-12-08T07:59:24.158Z,941.50
2022-12-08T08:00:24.119Z,941.49
2022-12-08T08:01:24.300Z,941.49
2022-12-08T08:02:26.026Z,941.52
2022-12-08T08:03:24.091Z,941.53
2022-12-08T08:04:24.128Z,941.53
2022-12-08T08:05:24.072Z,941.55
2022-12-08T08:06:24.054Z,941.55
2022-12-08T08:07:24.045Z,941.57
2022-12-08T08:08:24.069Z,941.52
2022-12-08T08:09:24.032Z,941.55
2022-12-08T08:10:24.030Z,941.56
2022-12-08T08:11:24.009Z,941.56
2022-12-08T08:12:32.306Z,941.56
2022-12-08T08:13:24.989Z,941.59
2022-12-08T08:14:23.990Z,941.59
2022-12-08T08:15:23.963Z,941.62
2022-12-08T08:16:24.084Z,941.59
2022-12-08T08:17:24.095Z,941.60
2022-12-08T08:18:23.940Z,941.60
2022-12-08T08:19:23.968Z,941.61
2022-12-08T08:20:23.899Z,941.59
2022-12-08T08:21:48.193Z,941.60
2022-12-08T08:22:24.882Z,941.56
2022-12-08T08:23:23.871Z,941.55
2022-12-08T08:24:23.877Z,941.58
2022-12-08T08:25:23.854Z,941.60
2022-12-08T08:26:23.837Z,941.60
2022-12-08T08:27:23.828Z,941.60
2022-12-08T08:28:23.825Z,941.61
2022-12-08T08:29:23.819Z,941.59
2022-12-08T08:30:23.790Z,941.60
2022-12-08T08:31:23.813Z,941.60
2022-12-08T08:32:23.787Z,941.59
2022-12-08T08:33:23.775Z,941.58
2022-12-08T08:43:08.834Z,941.60
2022-12-08T08:44:08.845Z,941.64
2022-12-08T08:45:08.864Z,941.64
2022-12-08T08:46:08.910Z,941.59
2022-12-08T08:47:08.724Z,941.60
2022-12-08T08:48:08.756Z,941.65
2022-12-08T08:49:08.682Z,941.64
2022-12-08T08:50:09.031Z,941.65
2022-12-08T08:51:08.664Z,941.66
2022-12-08T08:52:08.601Z,941.63
2022-12-08T08:53:08.598Z,941.64
2022-12-08T08:54:08.611Z,941.64
2022-12-08T08:55:08.596Z,941.64
2022-12-08T08:56:08.551Z,941.66
2022-12-08T08:57:08.572Z,941.67
2022-12-08T08:58:08.537Z,941.66
2022-12-08T08:59:08.600Z,941.70
2022-12-08T09:00:08.560Z,941.67
2022-12-08T09:01:08.507Z,941.64
2022-12-08T09:02:08.541Z,941.72
2022-12-08T09:03:08.488Z,941.69
2022-12-08T09:04:08.560Z,941.66
2022-12-08T09:05:08.510Z,941.63
2022-12-08T09:06:08.504Z,941.69
2022-12-08T09:07:08.461Z,941.67
2022-12-08T09:08:08.437Z,941.71
2022-12-08T09:09:08.423Z,941.69
2022-12-08T09:10:08.767Z,941.69
2022-12-08T09:11:08.398Z,941.72
2022-12-08T09:12:08.441Z,941.70
2022-12-08T09:13:08.366Z,941.76
2022-12-08T09:14:08.354Z,941.77
2022-12-08T09:15:08.377Z,941.73
2022-12-08T09:16:08.391Z,941.75
2022-12-08T09:17:08.346Z,941.72
2022-12-08T09:18:08.308Z,941.74
2022-12-08T09:19:08.302Z,941.70
2022-12-08T09:20:08.344Z,941.67
2022-12-08T09:21:08.300Z,941.69
2022-12-08T09:22:08.281Z,941.67
2022-12-08T09:23:08.259Z,941.70
2022-12-08T09:24:08.242Z,941.71
2022-12-08T09:25:08.232Z,941.67
2022-12-08T09:26:08.231Z,941.71
2022-12-08T09:27:08.238Z,941.73
2022-12-08T09:28:08.197Z,941.69
2022-12-08T09:29:08.222Z,941.70
2022-12-08T09:30:08.175Z,941.71
2022-12-08T09:31:08.282Z,941.71
2022-12-08T09:32:08.182Z,941.73
2022-12-08T09:33:08.148Z,941.69
2022-12-08T09:34:08.141Z,941.70
2022-12-08T09:35:08.146Z,941.66
2022-12-08T09:36:08.104Z,941.65
2022-12-08T09:37:08.119Z,941.57
2022-12-08T09:38:08.083Z,941.56
2022-12-08T09:39:08.090Z,941.59
2022-12-08T09:40:08.306Z,941.57
2022-12-08T09:41:08.066Z,941.54
2022-12-08T09:42:08.089Z,941.55
2022-12-08T09:43:08.031Z,941.54
2022-12-08T09:44:08.016Z,941.55
2022-12-08T09:45:08.040Z,941.53
2022-12-08T09:46:08.055Z,941.48
2022-12-08T09:47:08.042Z,941.47
2022-12-08T09:48:07.982Z,941.46
2022-12-08T09:49:07.975Z,941.44
2022-12-08T09:50:08.397Z,941.42
2022-12-08T09:51:07.965Z,941.39
2022-12-08T09:52:07.927Z,941.40
2022-12-08T09:53:07.932Z,941.35
2022-12-08T09:54:10.663Z,941.38
2022-12-08T09:55:07.902Z,941.38
2022-12-08T09:56:07.902Z,941.43
2022-12-08T09:57:07.895Z,941.37
2022-12-08T09:58:07.903Z,941.36
2022-12-08T09:59:07.872Z,941.40
2022-12-08T10:00:08.157Z,941.40
2022-12-08T10:01:07.846Z,941.33
2022-12-08T10:02:07.875Z,941.36
2022-12-08T10:03:10.208Z,941.39
2022-12-08T10:04:08.828Z,941.33
2022-12-08T10:05:07.871Z,941.33
2022-12-08T10:06:07.783Z,941.33
2022-12-08T10:07:07.788Z,941.32
2022-12-08T10:08:07.817Z,941.40
2022-12-08T10:09:11.161Z,941.34
2022-12-08T10:10:07.903Z,941.33
2022-12-08T10:11:07.744Z,941.37
2022-12-08T10:12:07.732Z,941.37
2022-12-08T10:13:07.704Z,941.33
2022-12-08T10:14:07.689Z,941.35
2022-12-08T10:15:07.725Z,941.35
2022-12-08T10:16:07.729Z,941.32
2022-12-08T10:17:07.706Z,941.35
2022-12-08T10:18:07.674Z,941.27
2022-12-08T10:19:07.662Z,941.27
2022-12-08T10:20:07.897Z,941.25
2022-12-08T10:21:07.639Z,941.25
2022-12-08T10:22:07.625Z,941.26
2022-12-08T10:23:07.597Z,941.29
2022-12-08T10:24:07.574Z,941.26
2022-12-08T10:25:07.585Z,941.25
2022-12-08T10:26:07.562Z,941.30
2022-12-08T10:27:07.538Z,941.28
2022-12-08T10:28:07.588Z,941.28
2022-12-08T10:29:07.535Z,941.21
2022-12-08T10:30:07.797Z,941.25
2022-12-08T10:31:07.574Z,941.27
2022-12-08T10:32:07.531Z,941.25
2022-12-08T10:33:07.495Z,941.22
2022-12-08T10:34:07.483Z,941.19
2022-12-08T10:35:07.476Z,941.16
2022-12-08T10:36:07.468Z,941.15
2022-12-08T10:37:07.471Z,941.11
2022-12-08T10:38:07.419Z,941.05
2022-12-08T10:39:07.437Z,941.06
2022-12-08T10:40:07.864Z,941.03
2022-12-08T10:41:07.385Z,941.06
2022-12-08T10:42:07.405Z,941.07
2022-12-08T10:43:07.388Z,941.04
2022-12-08T10:44:07.350Z,940.99
2022-12-08T10:45:07.384Z,940.97
2022-12-08T10:46:07.360Z,940.92
2022-12-08T10:47:07.393Z,940.96
2022-12-08T10:48:07.316Z,940.88
2022-12-08T10:49:07.319Z,940.94
2022-12-08T10:50:07.595Z,940.93
2022-12-08T10:51:07.281Z,940.93
2022-12-08T10:52:07.249Z,940.92
2022-12-08T10:53:07.311Z,940.90
2022-12-08T10:54:07.280Z,940.91
2022-12-08T10:55:07.245Z,940.91
2022-12-08T10:56:07.210Z,940.88
2022-12-08T10:57:07.213Z,940.84
2022-12-08T10:58:07.235Z,940.89
2022-12-08T10:59:07.188Z,940.89
2022-12-08T11:00:13.634Z,940.90
2022-12-08T11:01:08.186Z,940.87
2022-12-08T11:02:07.266Z,940.84
2022-12-08T11:03:07.230Z,940.83
2022-12-08T11:04:07.149Z,940.83
2022-12-08T11:05:07.126Z,940.81
2022-12-08T11:06:10.863Z,940.77
2022-12-08T11:07:07.101Z,940.77
2022-12-08T11:08:07.121Z,940.79
2022-12-08T11:09:07.107Z,940.74
2022-12-08T11:10:07.461Z,940.76
2022-12-08T11:11:07.075Z,940.79
2022-12-08T11:12:07.031Z,940.73
2022-12-08T11:13:07.079Z,940.73
2022-12-08T11:14:07.017Z,940.72
2022-12-08T11:15:07.004Z,940.71
2022-12-08T11:16:07.050Z,940.69
2022-12-08T11:17:07.012Z,940.66
2022-12-08T11:18:07.013Z,940.67
2022-12-08T11:19:06.954Z,940.62
2022-12-08T11:20:07.254Z,940.63
2022-12-08T11:21:06.942Z,940.60
2022-12-08T11:22:06.945Z,940.60
2022-12-08T11:23:07.068Z,940.59
2022-12-08T11:24:06.905Z,940.58
2022-12-08T11:25:06.893Z,940.59
2022-12-08T11:26:06.948Z,940.59
2022-12-08T11:27:06.874Z,940.62
2022-12-08T11:28:06.875Z,940.63
2022-12-08T11:29:06.845Z,940.61
2022-12-08T11:30:12.600Z,940.65
2022-12-08T11:31:09.167Z,940.64
2022-12-08T11:32:06.856Z,940.62
2022-12-08T11:33:06.899Z,940.61
2022-12-08T11:34:06.819Z,940.64
2022-12-08T11:35:06.786Z,940.57
2022-12-08T11:36:06.772Z,940.59
2022-12-08T11:37:06.770Z,940.58
2022-12-08T11:38:21.008Z,940.58
2022-12-08T11:39:07.757Z,940.58
2022-12-08T11:40:07.177Z,940.62
2022-12-08T11:41:10.844Z,940.58
2022-12-08T11:42:07.715Z,940.55
2022-12-08T11:43:06.686Z,940.53
2022-12-08T11:44:06.703Z,940.54
2022-12-08T11:45:07.152Z,940.54
2022-12-08T11:46:06.739Z,940.55
2022-12-08T11:47:06.650Z,940.52
2022-12-08T11:48:06.676Z,940.54
2022-12-08T11:49:07.338Z,940.50
2022-12-08T11:50:07.085Z,940.59
2022-12-08T11:51:06.684Z,940.60
2022-12-08T11:52:06.611Z,940.53
2022-12-08T11:53:06.586Z,940.55
2022-12-08T11:54:06.587Z,940.54
2022-12-08T11:55:06.608Z,940.50
2022-12-08T11:56:06.561Z,940.50
2022-12-08T11:57:06.589Z,940.49
2022-12-08T11:58:06.577Z,940.49
2022-12-08T11:59:06.545Z,940.49
2022-12-08T12:00:06.695Z,940.46
2022-12-08T12:01:06.498Z,940.45
2022-12-08T12:02:06.569Z,940.46
2022-12-08T12:03:06.535Z,940.43
2022-12-08T12:04:06.501Z,940.50
2022-12-08T12:05:06.465Z,940.42
2022-12-08T12:06:13.691Z,940.49
2022-12-08T12:07:07.439Z,940.44
2022-12-08T12:08:06.462Z,940.44
2022-12-08T12:09:06.440Z,940.48
2022-12-08T12:10:06.752Z,940.42
2022-12-08T12:11:06.390Z,940.42
2022-12-08T12:12:06.388Z,940.40
2022-12-08T12:13:06.380Z,940.41
2022-12-08T12:14:06.387Z,940.43
2022-12-08T12:15:06.338Z,940.44
2022-12-08T12:16:06.311Z,940.40
2022-12-08T12:17:06.409Z,940.41
2022-12-08T12:18:06.325Z,940.40
2022-12-08T12:19:06.295Z,940.38
2022-12-08T12:20:06.461Z,940.41
2022-12-08T12:21:06.272Z,940.37
2022-12-08T12:22:06.280Z,940.35
2022-12-08T12:23:06.273Z,940.39
2022-12-08T12:24:06.238Z,940.35
2022-12-08T12:25:06.233Z,940.41
2022-12-08T12:26:06.257Z,940.36
2022-12-08T12:27:06.215Z,940.37
2022-12-08T12:28:06.217Z,940.36
2022-12-08T12:29:06.194Z,940.36
2022-12-08T12:30:06.293Z,940.38
2022-12-08T12:31:06.221Z,940.41
2022-12-08T12:32:06.188Z,940.36
2022-12-08T12:33:06.181Z,940.35
2022-12-08T12:34:06.127Z,940.35
2022-12-08T12:35:06.123Z,940.37
2022-12-08T12:36:06.097Z,940.39
2022-12-08T12:37:06.140Z,940.38